aviador You're here:

LDZD Decoded Metar

ZADAR in CROATIA
Report Time2018-02-25 11:00:00
UTC Time2018-02-25 11:10:09
Flight Rules vfr VFR
Wind070° at 13 kt
W.Decomp.*RWY 04: 11.5 kt HW 6.1 kt RCW
RWY 14: 4.0 kt HW 12.4 kt LCW
W.Rank070° ranks 5
Current wind is above 070° avg. (7.5)
Visibility9999 m
Phenomena:N/A
Clouds:Overcast 055 Hf
Expected CloudBase > 5,200 ft AGL from Temp-Dew spread
Ceiling5,500 ft
Temp02°C (ISA -12)
Dew Point-11°C (38% RH)
AAT-5.8°C
QNH1011 hPa
Density Alt-1,132 ft
Elevation276 ft
Report Wrong Elevation
Raw Report
METAR LDZD 251100Z 07013KT 020V130 9999 OVC055 02/M11 Q1011 TEMPO 04015G25KT=

Extra information for LDZD:More info

Metar Taf Metar & Taf Last 4 Metars F.Rules Stats Wind Profile Meteogram Temp Stats Airport Information Weather charts Add Link Nearby VenuesMetar ALERT Operation Metar Decoded Social comments